createdAt,value
2018-09-14T00:00:00.840Z,102146.77
2018-09-14T00:02:29.268Z,102145.61
2018-09-14T00:04:57.810Z,102142.42
2018-09-14T00:07:26.281Z,102140.95
2018-09-14T00:09:54.782Z,102141.29
2018-09-14T00:12:23.393Z,102138.02
2018-09-14T00:14:51.827Z,102136.08
2018-09-14T00:17:20.254Z,102134.69
2018-09-14T00:19:48.689Z,102129.84
2018-09-14T00:22:17.152Z,102132.36
2018-09-14T00:24:45.700Z,102125.69
2018-09-14T00:27:14.159Z,102126.66
2018-09-14T00:29:42.654Z,102124.55
2018-09-14T00:32:11.185Z,102127.22
2018-09-14T00:34:39.681Z,102131.16
2018-09-14T00:37:08.301Z,102127.14
2018-09-14T00:39:36.764Z,102122.89
2018-09-14T00:42:05.212Z,102119.44
2018-09-14T00:44:33.715Z,102115.38
2018-09-14T00:47:02.180Z,102125.64
2018-09-14T00:49:30.676Z,102116.12
2018-09-14T00:51:59.163Z,102121.68
2018-09-14T00:54:27.992Z,102122.50
2018-09-14T00:56:56.511Z,102120.45
2018-09-14T00:59:25.074Z,102121.98
2018-09-14T01:01:53.589Z,102123.89
2018-09-14T01:04:22.067Z,102119.59
2018-09-14T01:06:50.848Z,102119.69
2018-09-14T01:09:25.264Z,102113.78
2018-09-14T01:12:01.668Z,102116.66
2018-09-14T01:14:30.145Z,102110.68
2018-09-14T01:17:02.845Z,102108.89
2018-09-14T01:19:31.313Z,102110.54
2018-09-14T01:21:59.792Z,102107.52
2018-09-14T01:24:29.332Z,102109.74
2018-09-14T01:26:57.901Z,102109.49
2018-09-14T01:29:26.349Z,102110.79
2018-09-14T01:31:55.005Z,102102.34
2018-09-14T01:34:23.517Z,102103.65
2018-09-14T01:36:52.009Z,102097.67
2018-09-14T01:39:21.623Z,102104.49
2018-09-14T01:41:50.089Z,102104.58
2018-09-14T01:44:35.577Z,102101.06
2018-09-14T01:47:04.023Z,102109.50
2018-09-14T01:49:33.867Z,102107.70
2018-09-14T01:52:02.296Z,102107.45
2018-09-14T01:54:36.624Z,102105.80
2018-09-14T01:57:05.255Z,102097.67
2018-09-14T01:59:33.686Z,102104.72
2018-09-14T02:02:02.234Z,102102.34
2018-09-14T02:04:30.790Z,102106.92
2018-09-14T02:06:59.309Z,102104.14
2018-09-14T02:09:27.754Z,102096.77
2018-09-14T02:11:56.305Z,102100.13
2018-09-14T02:14:24.981Z,102097.43
2018-09-14T02:16:58.066Z,102098.17
2018-09-14T02:19:26.745Z,102095.22
2018-09-14T02:21:55.319Z,102089.56
2018-09-14T02:24:23.912Z,102089.89
2018-09-14T02:26:52.488Z,102097.75
2018-09-14T02:29:21.689Z,102091.85
2018-09-14T02:31:50.282Z,102089.64
2018-09-14T02:34:18.872Z,102084.48
2018-09-14T02:36:47.470Z,102081.52
2018-09-14T02:39:16.015Z,102078.41
2018-09-14T02:41:44.839Z,102084.14
2018-09-14T02:44:13.499Z,102080.87
2018-09-14T02:46:42.069Z,102077.11
2018-09-14T02:49:10.752Z,102080.39
2018-09-14T02:51:39.368Z,102080.47
2018-09-14T02:54:08.677Z,102075.56
2018-09-14T02:56:37.306Z,102077.20
2018-09-14T02:59:06.054Z,102079.97
2018-09-14T03:01:34.622Z,102080.06
2018-09-14T03:04:03.214Z,102074.00
2018-09-14T03:06:32.425Z,102077.84
2018-09-14T03:09:01.158Z,102077.68
2018-09-14T03:11:29.785Z,102075.41
2018-09-14T03:13:58.424Z,102074.67
2018-09-14T03:16:27.062Z,102074.91
2018-09-14T03:18:55.658Z,102071.87
2018-09-14T03:21:24.317Z,102065.81
2018-09-14T03:23:54.095Z,102069.50
2018-09-14T03:26:22.661Z,102072.29
2018-09-14T03:28:51.307Z,102072.62
2018-09-14T03:31:22.044Z,102071.98
2018-09-14T03:33:50.637Z,102079.43
2018-09-14T03:36:19.168Z,102080.33
2018-09-14T03:38:47.781Z,102082.45
2018-09-14T03:41:16.376Z,102085.08
2018-09-14T03:43:45.075Z,102088.52
2018-09-14T03:46:13.725Z,102084.26
2018-09-14T03:49:14.097Z,102090.56
2018-09-14T03:51:42.752Z,102091.47
2018-09-14T03:54:11.280Z,102090.16
2018-09-14T03:56:39.926Z,102089.17
2018-09-14T03:59:08.457Z,102087.54
2018-09-14T04:01:37.117Z,102083.36
2018-09-14T04:04:05.683Z,102085.23
2018-09-14T04:06:34.578Z,102088.65
2018-09-14T04:09:03.508Z,102086.18
2018-09-14T04:11:32.064Z,102082.66
2018-09-14T04:14:00.653Z,102078.50
2018-09-14T04:16:29.220Z,102080.38
2018-09-14T04:19:01.004Z,102084.40
2018-09-14T04:21:30.386Z,102078.09
2018-09-14T04:23:59.082Z,102080.58
2018-09-14T04:26:28.532Z,102078.00
2018-09-14T04:28:57.618Z,102077.09
2018-09-14T04:31:26.238Z,102076.78
2018-09-14T04:34:02.730Z,102080.06
2018-09-14T04:36:31.412Z,102080.73
2018-09-14T04:39:00.000Z,102082.45
2018-09-14T04:41:28.594Z,102086.46
2018-09-14T04:43:57.173Z,102076.80
2018-09-14T04:46:25.907Z,102080.64
2018-09-14T04:48:54.575Z,102079.80
2018-09-14T04:51:23.286Z,102077.68
2018-09-14T04:53:51.908Z,102076.14
2018-09-14T04:56:20.463Z,102074.73
2018-09-14T04:58:49.347Z,102067.96
2018-09-14T05:01:17.976Z,102068.45
2018-09-14T05:03:46.557Z,102070.41
2018-09-14T05:06:15.260Z,102067.44
2018-09-14T05:08:44.013Z,102068.48
2018-09-14T05:11:12.572Z,102067.82
2018-09-14T05:13:41.921Z,102067.18
2018-09-14T05:16:10.552Z,102070.14
2018-09-14T05:18:39.259Z,102068.72
2018-09-14T05:21:07.910Z,102074.30
2018-09-14T05:23:37.060Z,102072.23
2018-09-14T05:26:05.640Z,102072.49
2018-09-14T05:28:34.338Z,102077.49
2018-09-14T05:31:02.930Z,102080.23
2018-09-14T05:33:31.793Z,102083.61
2018-09-14T05:36:01.035Z,102079.45
2018-09-14T05:38:29.753Z,102083.32
2018-09-14T05:40:58.386Z,102082.85
2018-09-14T05:43:26.984Z,102088.76
2018-09-14T05:45:55.782Z,102086.46
2018-09-14T05:48:24.551Z,102088.17
2018-09-14T05:50:53.982Z,102087.83
2018-09-14T05:53:22.698Z,102094.37
2018-09-14T05:55:51.345Z,102093.98
2018-09-14T05:58:20.118Z,102098.52
2018-09-14T06:01:14.945Z,102089.95
2018-09-14T06:03:43.557Z,102095.64
2018-09-14T06:06:12.197Z,102096.27
2018-09-14T06:08:40.760Z,102096.44
2018-09-14T06:11:10.006Z,102101.36
2018-09-14T06:13:39.652Z,102098.91
2018-09-14T06:16:08.252Z,102098.58
2018-09-14T06:18:42.502Z,102096.55
2018-09-14T06:21:11.165Z,102098.27
2018-09-14T06:23:39.799Z,102098.75
2018-09-14T06:26:08.373Z,102103.16
2018-09-14T06:28:37.063Z,102103.71
2018-09-14T06:31:05.874Z,102099.83
2018-09-14T06:33:34.810Z,102105.21
2018-09-14T06:36:03.415Z,102103.95
2018-09-14T06:38:32.091Z,102103.20
2018-09-14T06:41:00.755Z,102104.63
2018-09-14T06:43:29.313Z,102105.64
2018-09-14T06:45:57.933Z,102101.73
2018-09-14T06:48:27.495Z,102102.66
2018-09-14T06:50:56.055Z,102103.59
2018-09-14T06:53:26.982Z,102095.31
2018-09-14T06:55:55.569Z,102096.38
2018-09-14T06:58:24.457Z,102093.34
2018-09-14T07:00:53.137Z,102094.31
2018-09-14T07:03:21.741Z,102094.31
2018-09-14T07:05:50.331Z,102096.98
2018-09-14T07:08:19.035Z,102090.87
2018-09-14T07:10:47.666Z,102090.55
2018-09-14T07:13:16.315Z,102092.81
2018-09-14T07:15:44.961Z,102094.11
2018-09-14T07:18:13.634Z,102095.41
2018-09-14T07:20:42.327Z,102093.77
2018-09-14T07:23:12.221Z,102088.47
2018-09-14T07:25:40.796Z,102096.81
2018-09-14T07:28:10.029Z,102094.56
2018-09-14T07:30:38.700Z,102095.89
2018-09-14T07:33:07.542Z,102098.55
2018-09-14T07:35:36.327Z,102103.04
2018-09-14T07:38:05.016Z,102098.34
2018-09-14T07:40:33.681Z,102097.89
2018-09-14T07:43:02.333Z,102099.20
2018-09-14T07:45:31.035Z,102104.10
2018-09-14T07:47:59.716Z,102101.02
2018-09-14T07:50:28.972Z,102098.47
2018-09-14T07:52:57.697Z,102103.45
2018-09-14T07:55:26.298Z,102101.73
2018-09-14T07:57:54.983Z,102098.72
2018-09-14T08:00:23.567Z,102103.72
2018-09-14T08:02:52.255Z,102101.52
2018-09-14T08:05:20.904Z,102107.63
2018-09-14T08:07:49.709Z,102104.00
2018-09-14T08:10:19.129Z,102105.72
2018-09-14T08:12:47.807Z,102100.58
2018-09-14T08:15:16.393Z,102097.41
2018-09-14T08:17:45.276Z,102101.98
2018-09-14T08:20:13.996Z,102095.96
2018-09-14T08:23:08.328Z,102097.98
2018-09-14T08:25:36.905Z,102093.23
2018-09-14T08:28:05.573Z,102092.13
2018-09-14T08:30:34.169Z,102102.24
2018-09-14T08:33:02.793Z,102092.79
2018-09-14T08:35:31.376Z,102098.30
2018-09-14T08:37:59.978Z,102094.83
2018-09-14T08:40:28.686Z,102096.47
2018-09-14T08:42:57.439Z,102102.44
2018-09-14T08:45:26.034Z,102098.85
2018-09-14T08:47:54.731Z,102096.08
2018-09-14T08:50:36.856Z,102093.89
2018-09-14T08:53:05.477Z,102102.92
2018-09-14T08:56:13.736Z,102097.02
2018-09-14T08:58:42.294Z,102102.08
2018-09-14T09:01:10.932Z,102100.20
2018-09-14T09:03:39.534Z,102100.05
2018-09-14T09:06:08.681Z,102098.83
2018-09-14T09:08:37.405Z,102104.56
2018-09-14T09:11:06.077Z,102102.41
2018-09-14T09:13:34.675Z,102097.80
2018-09-14T09:16:03.275Z,102096.70
2018-09-14T09:18:31.894Z,102094.70
2018-09-14T09:21:00.561Z,102094.77
2018-09-14T09:23:29.288Z,102097.30
2018-09-14T09:25:58.053Z,102096.30
2018-09-14T09:28:26.627Z,102100.31
2018-09-14T09:30:56.090Z,102096.91
2018-09-14T09:33:24.713Z,102097.89
2018-09-14T09:35:53.490Z,102098.14
2018-09-14T09:38:22.148Z,102106.38
2018-09-14T09:40:50.794Z,102103.73
2018-09-14T09:43:19.533Z,102101.45
2018-09-14T09:45:48.169Z,102098.58
2018-09-14T09:48:16.893Z,102092.02
2018-09-14T09:50:45.519Z,102096.57
2018-09-14T09:53:14.081Z,102096.64
2018-09-14T09:55:42.754Z,102086.09
2018-09-14T09:58:11.352Z,102086.91
2018-09-14T10:00:47.037Z,102081.21
2018-09-14T10:03:16.435Z,102082.21
2018-09-14T10:05:50.423Z,102077.34
2018-09-14T10:08:19.045Z,102071.75
2018-09-14T10:10:47.738Z,102077.83
2018-09-14T10:13:16.413Z,102075.30
2018-09-14T10:15:45.027Z,102072.20
2018-09-14T10:18:13.777Z,102067.41
2018-09-14T10:20:43.100Z,102067.45
2018-09-14T10:23:11.783Z,102061.28
2018-09-14T10:25:45.828Z,102061.05
2018-09-14T10:31:37.746Z,102059.55
2018-09-14T10:34:06.844Z,102053.81
2018-09-14T10:36:35.433Z,102052.98
2018-09-14T10:39:08.449Z,102052.11
2018-09-14T10:41:37.198Z,102050.78
2018-09-14T10:44:05.793Z,102048.56
2018-09-14T10:46:34.473Z,102042.80
2018-09-14T10:49:03.188Z,102042.47
2018-09-14T10:51:32.063Z,102051.98
2018-09-14T10:54:00.636Z,102039.98
2018-09-14T10:56:29.313Z,102041.28
2018-09-14T10:59:06.309Z,102047.95
2018-09-14T11:01:34.915Z,102032.34
2018-09-14T11:04:03.503Z,102031.91
2018-09-14T11:06:32.297Z,102023.95
2018-09-14T11:09:01.044Z,102028.94
2018-09-14T11:11:29.635Z,102027.66
2018-09-14T11:13:58.418Z,102017.87
2018-09-14T11:16:27.098Z,102017.42
2018-09-14T11:18:55.700Z,102016.95
2018-09-14T11:21:24.281Z,102004.94
2018-09-14T11:23:52.856Z,101995.64
2018-09-14T11:26:21.547Z,102002.81
2018-09-14T11:28:50.130Z,101992.11
2018-09-14T11:31:20.917Z,101997.08
2018-09-14T11:33:49.640Z,101985.05
2018-09-14T11:36:18.544Z,101987.29
2018-09-14T11:38:47.514Z,101976.59
2018-09-14T11:41:16.119Z,101990.00
2018-09-14T11:43:44.845Z,101986.88
2018-09-14T11:46:13.752Z,101984.20
2018-09-14T11:48:42.425Z,101981.52
2018-09-14T11:51:11.111Z,101979.73
2018-09-14T11:53:40.465Z,101986.84
2018-09-14T11:56:09.202Z,101985.95
2018-09-14T11:58:37.886Z,101977.47
2018-09-14T12:01:07.365Z,101970.78
2018-09-14T12:03:36.076Z,101971.16
2018-09-14T12:06:04.724Z,101969.79
2018-09-14T12:08:33.290Z,101975.98
2018-09-14T12:11:02.328Z,101969.32
2018-09-14T12:13:31.090Z,101966.59
2018-09-14T12:15:59.727Z,101964.77
2018-09-14T12:18:28.443Z,101966.97
2018-09-14T12:20:57.182Z,101966.03
2018-09-14T12:23:25.854Z,101963.34
2018-09-14T12:25:54.862Z,101958.84
2018-09-14T12:28:23.539Z,101957.48
2018-09-14T12:30:52.196Z,101961.49
2018-09-14T12:33:20.859Z,101950.28
2018-09-14T12:35:49.469Z,101951.95
2018-09-14T12:38:18.349Z,101956.66
2018-09-14T12:40:46.925Z,101949.84
2018-09-14T12:43:16.196Z,101957.73
2018-09-14T12:45:44.850Z,101955.16
2018-09-14T12:48:13.426Z,101953.28
2018-09-14T12:50:42.204Z,101960.38
2018-09-14T12:53:10.890Z,101947.81
2018-09-14T12:55:39.566Z,101948.37
2018-09-14T12:58:18.133Z,101946.45
2018-09-14T13:00:50.051Z,101947.85
2018-09-14T13:03:18.655Z,101938.55
2018-09-14T13:05:47.221Z,101941.52
2018-09-14T13:08:16.008Z,101934.09
2018-09-14T13:10:44.594Z,101940.09
2018-09-14T13:13:13.334Z,101931.04
2018-09-14T13:15:41.997Z,101923.58
2018-09-14T13:18:10.960Z,101932.70
2018-09-14T13:20:39.650Z,101925.03
2018-09-14T13:23:08.219Z,101925.95
2018-09-14T13:25:36.932Z,101923.88
2018-09-14T13:28:05.686Z,101916.55
2018-09-14T13:30:34.590Z,101919.66
2018-09-14T13:33:03.197Z,101917.80
2018-09-14T13:35:31.754Z,101907.75
2018-09-14T13:38:00.328Z,101902.45
2018-09-14T13:40:29.135Z,101904.86
2018-09-14T13:42:57.842Z,101911.28
2018-09-14T13:45:27.454Z,101900.64
2018-09-14T13:47:56.824Z,101906.53
2018-09-14T13:50:26.183Z,101908.40
2018-09-14T13:53:03.258Z,101903.52
2018-09-14T13:55:39.997Z,101906.73
2018-09-14T13:58:08.619Z,101907.17
2018-09-14T14:00:37.304Z,101896.17
2018-09-14T14:03:06.563Z,101902.73
2018-09-14T14:05:35.248Z,101901.10
2018-09-14T14:08:03.932Z,101902.20
2018-09-14T14:10:33.401Z,101900.06
2018-09-14T14:13:13.183Z,101900.59
2018-09-14T14:15:41.742Z,101893.05
2018-09-14T14:18:11.169Z,101899.22
2018-09-14T14:20:40.200Z,101900.75
2018-09-14T14:23:08.999Z,101901.90
2018-09-14T14:25:40.124Z,101894.64
2018-09-14T14:28:10.049Z,101898.12
2018-09-14T14:30:38.982Z,101895.39
2018-09-14T14:33:08.292Z,101904.19
2018-09-14T14:35:36.953Z,101902.95
2018-09-14T14:38:06.189Z,101892.85
2018-09-14T14:40:34.816Z,101900.75
2018-09-14T14:43:03.591Z,101893.25
2018-09-14T14:45:32.290Z,101897.36
2018-09-14T14:48:00.897Z,101900.05
2018-09-14T14:50:29.525Z,101903.06
2018-09-14T14:52:58.326Z,101893.55
2018-09-14T14:55:27.000Z,101896.27
2018-09-14T14:57:55.731Z,101904.98
2018-09-14T15:00:24.326Z,101903.29
2018-09-14T15:02:53.071Z,101904.87
2018-09-14T15:05:21.783Z,101907.04
2018-09-14T15:07:50.557Z,101907.16
2018-09-14T15:10:19.262Z,101913.48
2018-09-14T15:12:47.890Z,101906.94
2018-09-14T15:15:16.591Z,101897.19
2018-09-14T15:17:45.279Z,101901.25
2018-09-14T15:20:13.944Z,101898.56
2018-09-14T15:22:42.596Z,101895.89
2018-09-14T15:25:11.241Z,101892.24
2018-09-14T15:27:39.850Z,101884.13
2018-09-14T15:30:08.505Z,101890.81
2018-09-14T15:32:37.118Z,101888.11
2018-09-14T15:35:05.918Z,101887.68
2018-09-14T15:37:34.652Z,101893.50
2018-09-14T15:40:03.255Z,101897.94
2018-09-14T15:42:31.936Z,101899.72
2018-09-14T15:45:00.811Z,101902.41
2018-09-14T15:47:29.400Z,101902.50
2018-09-14T15:49:58.040Z,101898.53
2018-09-14T15:52:26.669Z,101902.56
2018-09-14T15:54:55.486Z,101915.08
2018-09-14T15:57:24.115Z,101912.85
2018-09-14T15:59:52.660Z,101913.27
2018-09-14T16:02:21.331Z,101905.27
2018-09-14T16:04:49.958Z,101904.81
2018-09-14T16:07:18.581Z,101900.81
2018-09-14T16:09:47.281Z,101904.34
2018-09-14T16:12:15.955Z,101910.12
2018-09-14T16:14:44.659Z,101910.56
2018-09-14T16:17:13.217Z,101909.65
2018-09-14T16:19:42.032Z,101917.22
2018-09-14T16:22:10.646Z,101913.65
2018-09-14T16:24:39.281Z,101912.76
2018-09-14T16:27:08.241Z,101913.66
2018-09-14T16:29:36.895Z,101910.09
2018-09-14T16:32:05.497Z,101912.33
2018-09-14T16:34:34.132Z,101912.79
2018-09-14T16:37:02.921Z,101915.46
2018-09-14T16:42:57.014Z,101911.44
2018-09-14T16:45:25.583Z,101913.22
2018-09-14T16:47:54.234Z,101909.20
2018-09-14T16:50:22.933Z,101910.98
2018-09-14T16:52:51.584Z,101909.17
2018-09-14T16:55:20.282Z,101909.55
2018-09-14T16:57:48.905Z,101914.77
2018-09-14T17:00:17.653Z,101916.95
2018-09-14T17:02:46.472Z,101913.77
2018-09-14T17:05:15.179Z,101911.03
2018-09-14T17:07:43.855Z,101918.97
2018-09-14T17:10:12.547Z,101919.81
2018-09-14T17:12:41.192Z,101924.19
2018-09-14T17:15:09.870Z,101924.15
2018-09-14T17:17:39.091Z,101923.17
2018-09-14T17:20:09.977Z,101919.51
2018-09-14T17:22:38.732Z,101924.37
2018-09-14T17:25:21.661Z,101920.31
2018-09-14T17:27:51.527Z,101926.47
2018-09-14T17:30:20.365Z,101925.11
2018-09-14T17:32:49.042Z,101927.75
2018-09-14T17:35:18.369Z,101921.07
2018-09-14T17:37:48.623Z,101927.68
2018-09-14T17:40:17.492Z,101929.86
2018-09-14T17:42:46.232Z,101920.02
2018-09-14T17:45:14.894Z,101923.53
2018-09-14T17:47:43.595Z,101927.06
2018-09-14T17:50:12.282Z,101929.25
2018-09-14T17:52:40.955Z,101933.17
2018-09-14T17:55:09.617Z,101932.24
2018-09-14T17:57:38.261Z,101934.92
2018-09-14T18:00:07.305Z,101936.25
2018-09-14T18:02:35.905Z,101930.47
2018-09-14T18:05:04.632Z,101938.42
2018-09-14T18:07:33.417Z,101938.81
2018-09-14T18:10:02.285Z,101938.33
2018-09-14T18:13:00.389Z,101936.54
2018-09-14T18:15:29.042Z,101936.07
2018-09-14T18:17:57.715Z,101942.69
2018-09-14T18:20:26.339Z,101949.78
2018-09-14T18:22:54.974Z,101949.30
2018-09-14T18:25:23.627Z,101952.81
2018-09-14T18:27:52.348Z,101948.78
2018-09-14T18:33:45.556Z,101951.25
2018-09-14T18:36:14.424Z,101956.98
2018-09-14T18:38:43.162Z,101952.95
2018-09-14T18:41:11.894Z,101956.44
2018-09-14T18:43:40.527Z,101959.50
2018-09-14T18:46:10.166Z,101953.22
2018-09-14T18:48:38.789Z,101963.80
2018-09-14T18:51:07.517Z,101969.95
2018-09-14T18:53:37.174Z,101971.66
2018-09-14T18:56:05.754Z,101975.58
2018-09-14T18:58:34.387Z,101968.86
2018-09-14T19:01:03.361Z,101970.14
2018-09-14T19:03:32.040Z,101970.56
2018-09-14T19:06:00.671Z,101970.92
2018-09-14T19:08:29.510Z,101971.75
2018-09-14T19:10:58.222Z,101973.03
2018-09-14T19:13:26.899Z,101978.19
2018-09-14T19:15:55.573Z,101972.75
2018-09-14T19:18:24.173Z,101974.83
2018-09-14T19:20:52.999Z,101976.03
2018-09-14T19:23:21.629Z,101980.64
2018-09-14T19:25:50.334Z,101978.17
2018-09-14T19:28:19.715Z,101989.06
2018-09-14T19:30:48.439Z,101982.86
2018-09-14T19:33:17.086Z,101984.12
2018-09-14T19:35:45.801Z,101981.41
2018-09-14T19:38:14.709Z,101989.91
2018-09-14T19:40:43.566Z,101993.42
2018-09-14T19:43:12.426Z,101996.92
2018-09-14T19:45:41.441Z,101992.97
2018-09-14T19:48:10.353Z,101991.23
2018-09-14T19:50:39.064Z,101986.81
2018-09-14T19:53:34.471Z,101988.52
2018-09-14T19:56:03.163Z,101990.19
2018-09-14T19:58:31.853Z,101990.11
2018-09-14T20:01:00.934Z,101995.30
2018-09-14T20:03:29.889Z,101993.91
2018-09-14T20:05:59.039Z,102002.68
2018-09-14T20:08:29.113Z,102003.60
2018-09-14T20:10:57.893Z,102002.65
2018-09-14T20:13:26.610Z,102006.66
2018-09-14T20:15:55.335Z,102011.69
2018-09-14T20:18:24.202Z,102003.23
2018-09-14T20:20:53.817Z,102004.13
2018-09-14T20:23:26.469Z,102008.11
2018-09-14T20:25:55.291Z,102010.73
2018-09-14T20:28:23.925Z,102015.24
2018-09-14T20:30:52.729Z,102016.17
2018-09-14T20:33:21.564Z,102011.78
2018-09-14T20:35:50.403Z,102018.45
2018-09-14T20:38:19.130Z,102019.31
2018-09-14T20:40:47.796Z,102019.75
2018-09-14T20:43:16.460Z,102020.55
2018-09-14T20:45:45.174Z,102027.19
2018-09-14T20:48:13.934Z,102032.04
2018-09-14T20:50:42.616Z,102031.58
2018-09-14T20:53:11.497Z,102027.13
2018-09-14T20:55:40.227Z,102029.29
2018-09-14T20:58:11.612Z,102027.47
2018-09-14T21:00:41.017Z,102027.41
2018-09-14T21:03:09.813Z,102029.13
2018-09-14T21:05:38.580Z,102028.64
2018-09-14T21:08:07.376Z,102027.72
2018-09-14T21:10:36.117Z,102025.89
2018-09-14T21:13:04.968Z,102024.50
2018-09-14T21:15:33.602Z,102029.34
2018-09-14T21:18:02.197Z,102029.74
2018-09-14T21:20:30.999Z,102038.53
2018-09-14T21:22:59.653Z,102044.67
2018-09-14T21:25:28.344Z,102037.58
2018-09-14T21:27:57.077Z,102037.97
2018-09-14T21:30:25.830Z,102037.47
2018-09-14T21:32:54.527Z,102039.20
2018-09-14T21:35:23.748Z,102039.14
2018-09-14T21:37:52.536Z,102038.17
2018-09-14T21:40:21.251Z,102042.48
2018-09-14T21:42:49.831Z,102044.06
2018-09-14T21:45:19.161Z,102049.70
2018-09-14T21:47:47.862Z,102044.72
2018-09-14T21:50:17.449Z,102043.72
2018-09-14T21:52:46.335Z,102050.34
2018-09-14T21:55:15.090Z,102051.20
2018-09-14T21:57:43.784Z,102044.44
2018-09-14T22:00:17.966Z,102043.00
2018-09-14T22:02:46.618Z,102041.20
2018-09-14T22:05:15.315Z,102042.06
2018-09-14T22:07:43.980Z,102040.84
2018-09-14T22:10:12.906Z,102038.66
2018-09-14T22:12:41.586Z,102038.66
2018-09-14T22:15:10.263Z,102035.51
2018-09-14T22:17:39.765Z,102042.42
2018-09-14T22:20:08.503Z,102033.42
2018-09-14T22:22:37.277Z,102038.08
2018-09-14T22:25:06.171Z,102038.20
2018-09-14T22:27:34.792Z,102036.14
2018-09-14T22:30:03.425Z,102038.09
2018-09-14T22:32:32.074Z,102035.12
2018-09-14T22:35:00.661Z,102036.67
2018-09-14T22:37:29.349Z,102044.33
2018-09-14T22:39:58.018Z,102044.94
2018-09-14T22:42:27.795Z,102042.38
2018-09-14T22:44:56.433Z,102044.81
2018-09-14T22:47:25.015Z,102055.48
2018-09-14T22:49:54.063Z,102057.72
2018-09-14T22:52:22.726Z,102062.55
2018-09-14T22:54:51.403Z,102065.72
2018-09-14T22:57:20.078Z,102067.33
2018-09-14T22:59:48.755Z,102064.48
2018-09-14T23:02:17.333Z,102066.65
2018-09-14T23:04:45.971Z,102066.25
2018-09-14T23:07:14.525Z,102072.16
2018-09-14T23:10:31.035Z,102072.70
2018-09-14T23:12:59.687Z,102070.93
2018-09-14T23:15:28.261Z,102065.34
2018-09-14T23:17:56.898Z,102069.83
2018-09-14T23:20:25.515Z,102068.51
2018-09-14T23:22:54.169Z,102067.77
2018-09-14T23:25:22.732Z,102074.53
2018-09-14T23:27:52.446Z,102072.58
2018-09-14T23:30:21.234Z,102078.55
2018-09-14T23:32:50.684Z,102088.68
2018-09-14T23:35:19.865Z,102086.38
2018-09-14T23:37:48.412Z,102084.86
2018-09-14T23:40:17.001Z,102084.13
2018-09-14T23:42:45.584Z,102081.20
2018-09-14T23:45:14.316Z,102087.91
2018-09-14T23:47:42.940Z,102080.13
2018-09-14T23:50:11.620Z,102084.66
2018-09-14T23:52:40.285Z,102086.69
2018-09-14T23:55:09.023Z,102082.52
2018-09-14T23:57:37.589Z,102083.33
